This is the latest recevied weather packets stored in our database for station/object WC0AA. If no packets are shown the sender has not sent any weather packets the latest 10 day(s).
| Time | Temp. | Humidity | Pressure | Rain* | Wind** | Luminosity | Snow |
|---|---|---|---|---|---|---|---|
| 1777729805 | 11.67° C | 54% | 1022.2 hPa | 0 mm | - | - | - |
| 1777729204 | 10.56° C | 58% | 1022.2 hPa | 0 mm | - | - | - |
| 1777724404 | 2.78° C | 88% | 1021.7 hPa | 0 mm | - | - | - |
| 1777723805 | 1.67° C | 92% | 1021.7 hPa | 0 mm | - | - | - |
| 1777720205 | -1.67° C | 100% | 1021.3 hPa | 0 mm | - | - | - |
| 1777719604 | -1.11° C | 100% | 1021.4 hPa | 0 mm | - | - | - |
| 1777717204 | -0.56° C | 100% | 1021.1 hPa | 0 mm | - | - | - |
| 1777716604 | -0.56° C | 97% | 1021 hPa | 0 mm | - | - | - |
| 1777708204 | 0.56° C | 86% | 1020.6 hPa | 0 mm | - | - | - |
| 1777695005 | 7.22° C | 59% | 1020 hPa | 0 mm | - | - | - |
| 1777693804 | 7.22° C | 56% | 1019.9 hPa | 0 mm | - | - | - |
| 1777693205 | 7.22° C | 56% | 1019.9 hPa | 0 mm | - | - | - |
| 1777692605 | 7.22° C | 59% | 1019.9 hPa | 0 mm | - | - | - |
| 1777686604 | 11.67° C | 41% | 1018.5 hPa | 0 mm | - | - | - |
| 1777685405 | 12.22° C | 40% | 1017.9 hPa | 0 mm | - | - | - |
| 1777684804 | 12.22° C | 40% | 1017.7 hPa | 0 mm | - | - | - |
| 1777675205 | 17.78° C | 36% | 1017.1 hPa | 0 mm | - | - | - |
| 1777666804 | 20.56° C | 31% | 1017.9 hPa | 0 mm | - | - | - |
| 1777665005 | 21.11° C | 31% | 1018 hPa | 0 mm | - | - | - |
| 1777662005 | 20° C | 33% | 1018.2 hPa | 0 mm | - | - | - |
| 1777655405 | 17.78° C | 43% | 1018.8 hPa | 0 mm | - | - | - |
| 1777654204 | 17.22° C | 46% | 1018.9 hPa | 0 mm | - | - | - |
| 1777647005 | 14.44° C | 52% | 1019 hPa | 0 mm | - | - | - |
| 1777644604 | 11.67° C | 65% | 1019 hPa | 0 mm | - | - | - |
| 1777642805 | 9.44° C | 73% | 1019.2 hPa | 0 mm | - | - | - |
* Rain latest hour (hover to see other rain measurements)
** Current wind speed in m/s (hover to see current wind gust speed)